Littleriver, California
Current Conditions -  °F | °C
As of 9:56 AM on Tuesday 27 Jan 2015 (Local Time) from KUKI Reporting Station
Few Clouds Few Clouds  
Wind Chill: 49°   Ceiling: Unl
Heat Index: 49°   Visibility: 10mi
Dew Point: 44°   Wind: 0mph
Humidity: 83%   Direction: NA
Pressure: 30.17"   Gusts: NA
Location:  39.2639°N, 123.761°W
Report Text: KUKI 271656Z AUTO 00000KT 10SM FEW120 09/07 A3017 RMK AO2 SLP214 T00940067
Loading
Personal Weather Stations






























Interactive Weather Map New forecast layout! Learn more

10-Day Weather Forecast

Advertisements
Track Severe Weather on mobile